Airfield :
LOGIN :

Register | Disclaimer

   EN    FR    IT 

 










Legend :    VFR   Marginal VFR   IFR   Intensive IFR   Very Intensive IFR
Visi :
Ceiling :
>= 8 km
>= 3000ft
5 to 8 km
1000 to 3000 ft
1500m to 5 km
500 to 1000 ft
800 to 1500m
200 to 500 ft
< 800m
< 200 ft
Symbols :   Thunderstorms  Fog  Heavy snow  Heavy precipitations  Wind > 20 kt
SIGMETs :     Misc.  Thunderstorms  Icing  Turbulence  Mountain Waves  Volcanic Ashes







- Airport Elevation : 63 ft
- IATA code : BZM


EHWO - Woensdrecht Airbase

CURRENT METAR :
  • 210300Z AUTO 07006KT 1800 BR OVC180 09/09 Q1017 YLO

EXPIRED METARs :
  • 210259Z AUTO 07005KT 1300 BR OVC190 09/09 Q1017 AMB
  • 210255Z AUTO 07005KT 0400 FG BKN190 OVC250 09/09 Q1017 RED
  • 210225Z AUTO 09001KT 0550 FG BKN170 OVC270 09/09 Q1017 RED
  • 210217Z AUTO VRB01KT 3300 BR FEW170 OVC250 09/09 Q1017 YLO
  • 210213Z AUTO VRB02KT 1100 BR OVC250 10/10 Q1017 AMB
  • 210155Z AUTO VRB02KT 0500 FG OVC160 10/10 Q1017 RED
  • 210125Z AUTO 06002KT 0300 FG SCT000 OVC180 10/10 Q1017 RED
  • 210055Z AUTO VRB02KT 0350 FG FEW000 OVC190 11/11 Q1018 RED
  • 210050Z AUTO VRB01KT 0450 FG FEW000 OVC190 10/10 Q1018 RED
  • 210045Z AUTO VRB01KT 1000 BR FEW000 OVC190 11/11 Q1018 AMB
  • 210029Z AUTO 18003KT 170V270 0700 FG OVC180 11/11 Q1018 RED
  • 210025Z AUTO 18003KT 170V240 1300 BR OVC180 11/11 Q1018 AMB

Expired Forecast.
No reported NOTAMs for that airfield.



MET'MAP, your aeronautical weather chart ! - Copyright ORBIFLY December 2007 - Disclaimer

ORBIFLY MET'MAP TEAM :

Programming & Development : Alexandra Zaïnal
Concept & Development : Baudouin d'Aumeries
Co-Development & Prog : Marc-Olivier Méhu
Technical & hardware support : Manuel Goepfert

Contact : metmap@orbifly.com




SOURCES & CREDITS :

   NOAA